createdAt,value
2018-08-17T00:00:56.581Z,16.13
2018-08-17T00:03:26.435Z,17.80
2018-08-17T00:05:56.319Z,16.70
2018-08-17T00:08:26.343Z,15.43
2018-08-17T00:10:56.189Z,16.20
2018-08-17T00:13:26.247Z,16.27
2018-08-17T00:15:56.269Z,17.13
2018-08-17T00:18:26.046Z,17.10
2018-08-17T00:20:55.870Z,16.70
2018-08-17T00:23:26.905Z,17.70
2018-08-17T00:25:56.717Z,16.70
2018-08-17T00:28:26.802Z,17.27
2018-08-17T00:30:56.628Z,18.60
2018-08-17T00:33:26.405Z,15.97
2018-08-17T00:35:56.341Z,17.37
2018-08-17T00:38:26.263Z,19.67
2018-08-17T00:40:56.055Z,17.23
2018-08-17T00:43:25.948Z,17.50
2018-08-17T00:45:55.804Z,16.57
2018-08-17T00:48:25.775Z,20.50
2018-08-17T00:50:55.692Z,17.47
2018-08-17T00:53:25.855Z,15.73
2018-08-17T00:55:55.617Z,16.70
2018-08-17T00:58:25.399Z,16.93
2018-08-17T01:00:55.439Z,18.63
2018-08-17T01:03:25.384Z,17.83
2018-08-17T01:05:55.168Z,18.63
2018-08-17T01:08:25.164Z,22.80
2018-08-17T01:10:55.232Z,17.13
2018-08-17T01:13:25.148Z,20.50
2018-08-17T01:15:55.013Z,19.37
2018-08-17T01:18:24.934Z,22.27
2018-08-17T01:20:54.887Z,21.27
2018-08-17T01:23:24.814Z,23.90
2018-08-17T01:25:54.795Z,31.67
2018-08-17T01:28:25.321Z,22.77
2018-08-17T01:30:55.199Z,22.33
2018-08-17T01:33:25.327Z,21.33
2018-08-17T01:35:55.292Z,20.30
2018-08-17T01:38:25.363Z,22.17
2018-08-17T01:40:55.147Z,20.70
2018-08-17T01:43:25.013Z,18.47
2018-08-17T01:45:54.887Z,24.70
2018-08-17T01:48:24.869Z,19.60
2018-08-17T01:50:54.782Z,17.53
2018-08-17T01:53:24.724Z,19.53
2018-08-17T01:55:54.641Z,17.80
2018-08-17T01:58:24.572Z,15.90
2018-08-17T02:00:54.955Z,15.30
2018-08-17T02:03:24.808Z,15.47
2018-08-17T02:05:54.879Z,14.17
2018-08-17T02:08:24.845Z,14.90
2018-08-17T02:10:54.829Z,13.10
2018-08-17T02:13:24.900Z,14.23
2018-08-17T02:15:55.008Z,13.77
2018-08-17T02:18:24.731Z,13.23
2018-08-17T02:20:54.622Z,12.53
2018-08-17T02:23:24.383Z,13.53
2018-08-17T02:25:54.264Z,11.07
2018-08-17T02:28:24.322Z,12.60
2018-08-17T02:30:54.172Z,12.20
2018-08-17T02:33:24.245Z,12.17
2018-08-17T02:35:54.224Z,10.90
2018-08-17T02:38:24.268Z,9.97
2018-08-17T02:40:54.129Z,12.57
2018-08-17T02:43:23.994Z,16.73
2018-08-17T02:45:53.970Z,14.50
2018-08-17T02:48:24.006Z,15.00
2018-08-17T02:50:54.200Z,15.10
2018-08-17T02:53:24.441Z,14.93
2018-08-17T02:55:54.219Z,15.70
2018-08-17T02:58:24.170Z,17.13
2018-08-17T03:00:54.372Z,17.23
2018-08-17T03:03:24.173Z,16.40
2018-08-17T03:05:54.084Z,15.67
2018-08-17T03:08:23.972Z,10.10
2018-08-17T03:10:53.913Z,10.57
2018-08-17T03:13:23.830Z,11.40
2018-08-17T03:15:53.995Z,9.40
2018-08-17T03:18:23.943Z,10.97
2018-08-17T03:20:53.701Z,8.37
2018-08-17T03:23:23.898Z,11.17
2018-08-17T03:25:53.723Z,9.27
2018-08-17T03:28:23.573Z,8.80
2018-08-17T03:30:53.472Z,6.50
2018-08-17T03:33:23.494Z,7.63
2018-08-17T03:35:53.455Z,8.17
2018-08-17T03:38:23.275Z,9.03
2018-08-17T03:40:53.256Z,9.87
2018-08-17T03:43:23.323Z,13.03
2018-08-17T03:45:53.124Z,9.23
2018-08-17T03:48:23.084Z,11.63
2018-08-17T03:50:52.874Z,13.70
2018-08-17T03:53:22.855Z,12.13
2018-08-17T03:55:53.130Z,12.93
2018-08-17T03:58:23.157Z,16.30
2018-08-17T04:00:53.054Z,12.57
2018-08-17T04:03:22.917Z,10.67
2018-08-17T04:05:52.949Z,11.47
2018-08-17T04:08:22.852Z,9.40
2018-08-17T04:10:52.861Z,12.03
2018-08-17T04:13:22.669Z,9.03
2018-08-17T04:15:52.531Z,10.97
2018-08-17T04:18:22.619Z,12.47
2018-08-17T04:20:52.614Z,10.27
2018-08-17T04:23:22.543Z,11.43
2018-08-17T04:25:52.711Z,7.57
2018-08-17T04:28:22.666Z,11.13
2018-08-17T04:30:52.559Z,9.77
2018-08-17T04:33:22.411Z,10.40
2018-08-17T04:35:52.327Z,7.53
2018-08-17T04:38:22.323Z,8.10
2018-08-17T04:40:52.275Z,9.67
2018-08-17T04:43:22.330Z,12.73
2018-08-17T04:45:52.128Z,12.83
2018-08-17T04:48:22.175Z,8.93
2018-08-17T04:50:51.927Z,11.17
2018-08-17T04:53:21.996Z,9.23
2018-08-17T04:55:52.326Z,7.40
2018-08-17T04:58:22.357Z,9.97
2018-08-17T05:00:52.349Z,9.63
2018-08-17T05:03:22.238Z,12.07
2018-08-17T05:05:52.169Z,7.70
2018-08-17T05:08:22.250Z,8.57
2018-08-17T05:10:52.480Z,9.50
2018-08-17T05:13:22.305Z,11.43
2018-08-17T05:15:52.258Z,9.73
2018-08-17T05:18:22.289Z,11.23
2018-08-17T05:20:52.244Z,12.93
2018-08-17T05:23:23.385Z,10.20
2018-08-17T05:25:56.233Z,15.40
2018-08-17T05:28:26.300Z,11.23
2018-08-17T05:30:56.129Z,14.23
2018-08-17T05:33:26.277Z,9.13
2018-08-17T05:35:56.125Z,9.77
2018-08-17T05:38:26.106Z,11.73
2018-08-17T05:40:56.003Z,13.53
2018-08-17T05:43:25.844Z,12.00
2018-08-17T05:45:55.855Z,11.27
2018-08-17T05:48:25.693Z,15.27
2018-08-17T05:50:55.475Z,11.93
2018-08-17T05:53:25.333Z,12.83
2018-08-17T05:55:55.200Z,11.97
2018-08-17T05:58:25.207Z,12.40
2018-08-17T06:00:55.072Z,9.77
2018-08-17T06:03:24.938Z,10.53
2018-08-17T06:05:55.007Z,9.10
2018-08-17T06:08:24.893Z,10.57
2018-08-17T06:10:54.710Z,11.40
2018-08-17T06:13:24.656Z,10.13
2018-08-17T06:15:54.456Z,9.13
2018-08-17T06:18:24.227Z,8.97
2018-08-17T06:20:54.192Z,8.80
2018-08-17T06:23:24.191Z,9.10
2018-08-17T06:25:54.047Z,8.97
2018-08-17T06:28:24.113Z,8.70
2018-08-17T06:30:54.085Z,10.03
2018-08-17T06:33:23.967Z,10.73
2018-08-17T06:35:54.329Z,11.40
2018-08-17T06:38:24.301Z,16.13
2018-08-17T06:40:54.245Z,9.13
2018-08-17T06:43:24.135Z,11.37
2018-08-17T06:45:54.073Z,11.90
2018-08-17T06:48:23.975Z,11.93
2018-08-17T06:50:53.945Z,11.23
2018-08-17T06:53:23.971Z,12.20
2018-08-17T06:55:54.072Z,13.17
2018-08-17T06:58:23.843Z,10.50
2018-08-17T07:00:53.804Z,7.50
2018-08-17T07:03:23.728Z,12.20
2018-08-17T07:05:53.855Z,9.97
2018-08-17T07:08:23.781Z,8.23
2018-08-17T07:10:53.805Z,9.33
2018-08-17T07:13:24.028Z,6.67
2018-08-17T07:15:53.796Z,8.83
2018-08-17T07:18:23.570Z,9.70
2018-08-17T07:20:53.465Z,7.40
2018-08-17T07:23:23.573Z,8.07
2018-08-17T07:25:53.689Z,7.17
2018-08-17T07:28:23.589Z,7.17
2018-08-17T07:30:53.592Z,7.70
2018-08-17T07:33:23.415Z,8.50
2018-08-17T07:35:53.291Z,8.87
2018-08-17T07:38:23.041Z,8.10
2018-08-17T07:40:52.844Z,8.23
2018-08-17T07:43:22.653Z,6.60
2018-08-17T07:45:52.507Z,5.67
2018-08-17T07:48:22.636Z,7.40
2018-08-17T07:50:52.481Z,6.83
2018-08-17T07:53:22.389Z,7.50
2018-08-17T07:55:52.305Z,7.20
2018-08-17T07:58:22.219Z,6.53
2018-08-17T08:00:52.272Z,7.23
2018-08-17T08:03:22.134Z,6.97
2018-08-17T08:05:51.963Z,7.60
2018-08-17T08:08:21.856Z,10.67
2018-08-17T08:10:51.881Z,12.47
2018-08-17T08:13:21.876Z,12.97
2018-08-17T08:15:51.726Z,14.17
2018-08-17T08:18:21.784Z,12.77
2018-08-17T08:20:51.680Z,14.17
2018-08-17T08:23:29.191Z,12.17
2018-08-17T08:25:59.900Z,14.97
2018-08-17T08:28:29.921Z,13.30
2018-08-17T08:30:59.988Z,15.60
2018-08-17T08:33:29.893Z,13.20
2018-08-17T08:35:59.923Z,11.67
2018-08-17T08:38:30.009Z,13.60
2018-08-17T08:41:00.060Z,12.53
2018-08-17T08:43:30.188Z,10.43
2018-08-17T08:46:00.104Z,12.60
2018-08-17T08:48:30.206Z,11.80
2018-08-17T08:51:00.379Z,8.93
2018-08-17T08:53:30.306Z,9.93
2018-08-17T08:56:00.274Z,10.83
2018-08-17T08:58:30.305Z,9.73
2018-08-17T09:01:00.209Z,11.87
2018-08-17T09:03:30.112Z,9.10
2018-08-17T09:05:59.977Z,13.23
2018-08-17T09:08:29.856Z,14.23
2018-08-17T09:11:00.022Z,10.93
2018-08-17T09:13:30.310Z,11.20
2018-08-17T09:16:00.259Z,14.33
2018-08-17T09:18:30.608Z,14.07
2018-08-17T09:21:00.401Z,12.10
2018-08-17T09:23:30.667Z,13.60
2018-08-17T09:26:00.758Z,16.37
2018-08-17T09:28:30.992Z,16.87
2018-08-17T09:31:01.855Z,16.73
2018-08-17T09:33:37.114Z,14.30
2018-08-17T09:38:53.235Z,14.43
2018-08-17T09:41:29.805Z,17.43
2018-08-17T09:44:05.722Z,15.30
2018-08-17T09:46:36.434Z,16.00
2018-08-17T09:49:07.522Z,15.40
2018-08-17T09:51:38.475Z,16.40
2018-08-17T09:54:09.617Z,17.43
2018-08-17T09:56:42.707Z,17.47
2018-08-17T09:59:15.346Z,16.70
2018-08-17T10:01:51.470Z,17.17
2018-08-17T10:04:26.794Z,19.80
2018-08-17T10:07:02.598Z,18.90
2018-08-17T10:09:38.778Z,18.57
2018-08-17T10:12:09.808Z,19.90
2018-08-17T10:14:41.603Z,19.60
2018-08-17T10:17:13.269Z,19.37
2018-08-17T10:19:47.337Z,19.37
2018-08-17T10:22:18.223Z,17.73
2018-08-17T10:24:50.240Z,17.13
2018-08-17T10:27:25.826Z,17.13
2018-08-17T10:29:57.872Z,17.10
2018-08-17T10:32:29.457Z,12.43
2018-08-17T10:34:59.879Z,10.20
2018-08-17T10:37:31.091Z,10.90
2018-08-17T10:40:03.292Z,9.00
2018-08-17T10:42:36.249Z,9.83
2018-08-17T10:45:08.612Z,9.10
2018-08-17T10:47:40.457Z,8.03
2018-08-17T10:50:15.518Z,9.27
2018-08-17T10:52:45.560Z,9.57
2018-08-17T10:55:15.474Z,10.30
2018-08-17T10:57:45.797Z,11.67
2018-08-17T11:00:18.169Z,6.93
2018-08-17T11:02:48.295Z,8.63
2018-08-17T11:05:19.091Z,7.17
2018-08-17T11:07:49.812Z,8.27
2018-08-17T11:10:19.760Z,7.07
2018-08-17T11:12:49.901Z,9.07
2018-08-17T11:15:19.995Z,8.83
2018-08-17T11:17:49.844Z,12.27
2018-08-17T11:20:19.760Z,10.60
2018-08-17T11:22:49.787Z,9.27
2018-08-17T11:25:19.840Z,8.33
2018-08-17T11:27:51.675Z,6.93
2018-08-17T11:30:21.580Z,8.83
2018-08-17T11:32:51.434Z,9.97
2018-08-17T11:35:23.036Z,9.30
2018-08-17T11:37:53.292Z,11.13
2018-08-17T11:40:23.338Z,12.43
2018-08-17T11:42:53.242Z,13.30
2018-08-17T11:45:24.332Z,11.53
2018-08-17T11:47:55.139Z,9.77
2018-08-17T11:50:26.195Z,12.47
2018-08-17T11:52:57.228Z,11.40
2018-08-17T11:55:29.339Z,14.50
2018-08-17T11:57:59.516Z,10.63
2018-08-17T12:00:35.604Z,13.60
2018-08-17T12:03:06.998Z,10.00
2018-08-17T12:05:37.022Z,12.07
2018-08-17T12:08:07.508Z,9.90
2018-08-17T12:10:37.548Z,11.10
2018-08-17T12:13:12.780Z,12.50
2018-08-17T12:15:49.264Z,9.17
2018-08-17T12:18:19.556Z,10.47
2018-08-17T12:20:49.455Z,10.43
2018-08-17T12:23:19.655Z,10.23
2018-08-17T12:25:55.843Z,12.17
2018-08-17T12:28:27.572Z,10.90
2018-08-17T12:30:58.217Z,9.63
2018-08-17T12:33:28.158Z,17.50
2018-08-17T12:35:58.072Z,12.00
2018-08-17T12:38:27.966Z,9.83
2018-08-17T12:40:58.824Z,9.00
2018-08-17T12:43:34.499Z,12.37
2018-08-17T12:46:04.496Z,7.40
2018-08-17T12:48:34.495Z,8.90
2018-08-17T12:51:05.748Z,12.00
2018-08-17T12:53:36.127Z,8.93
2018-08-17T12:56:06.328Z,8.97
2018-08-17T12:58:36.185Z,12.90
2018-08-17T13:01:06.143Z,8.07
2018-08-17T13:03:36.288Z,10.50
2018-08-17T13:06:06.584Z,11.23
2018-08-17T13:08:36.566Z,8.70
2018-08-17T13:11:06.502Z,10.07
2018-08-17T13:13:36.275Z,7.20
2018-08-17T13:16:07.440Z,9.77
2018-08-17T13:18:39.220Z,7.00
2018-08-17T13:21:09.100Z,7.90
2018-08-17T13:23:39.057Z,10.63
2018-08-17T13:26:09.334Z,8.40
2018-08-17T13:28:39.285Z,7.97
2018-08-17T13:31:09.261Z,8.77
2018-08-17T13:33:39.206Z,6.43
2018-08-17T13:36:09.244Z,6.60
2018-08-17T13:38:39.177Z,6.77
2018-08-17T13:41:08.989Z,7.57
2018-08-17T13:43:39.193Z,9.97
2018-08-17T13:46:09.887Z,8.03
2018-08-17T13:48:40.020Z,8.00
2018-08-17T13:51:10.021Z,7.63
2018-08-17T13:53:39.976Z,9.63
2018-08-17T13:56:10.054Z,8.00
2018-08-17T13:58:40.058Z,9.73
2018-08-17T14:01:10.151Z,9.73
2018-08-17T14:03:40.209Z,10.63
2018-08-17T14:06:10.180Z,6.70
2018-08-17T14:08:40.108Z,8.63
2018-08-17T14:11:10.118Z,8.37
2018-08-17T14:13:40.050Z,8.27
2018-08-17T14:16:10.292Z,7.47
2018-08-17T14:18:40.081Z,8.90
2018-08-17T14:21:10.003Z,6.10
2018-08-17T14:23:39.852Z,7.63
2018-08-17T14:26:09.732Z,6.47
2018-08-17T14:28:39.671Z,7.20
2018-08-17T14:31:09.547Z,6.13
2018-08-17T14:33:39.492Z,8.80
2018-08-17T14:36:09.486Z,6.23
2018-08-17T14:38:39.394Z,5.73
2018-08-17T14:41:09.854Z,6.20
2018-08-17T14:43:39.953Z,5.90
2018-08-17T14:46:09.814Z,8.20
2018-08-17T14:48:39.783Z,5.63
2018-08-17T14:51:09.787Z,10.47
2018-08-17T14:53:39.654Z,5.87
2018-08-17T14:56:09.743Z,4.43
2018-08-17T14:58:39.489Z,7.03
2018-08-17T15:01:09.642Z,8.83
2018-08-17T15:03:39.502Z,5.30
2018-08-17T15:06:09.462Z,6.57
2018-08-17T15:08:39.353Z,5.60
2018-08-17T15:11:09.416Z,5.70
2018-08-17T15:13:39.318Z,6.00
2018-08-17T15:16:09.065Z,4.47
2018-08-17T15:18:38.890Z,9.70
2018-08-17T15:21:09.105Z,4.70
2018-08-17T15:23:39.105Z,5.73
2018-08-17T15:26:09.226Z,5.83
2018-08-17T15:28:39.341Z,4.57
2018-08-17T15:31:09.224Z,6.60
2018-08-17T15:33:39.315Z,6.67
2018-08-17T15:36:09.365Z,6.00
2018-08-17T15:38:39.368Z,8.53
2018-08-17T15:41:09.774Z,6.70
2018-08-17T15:43:39.864Z,7.33
2018-08-17T15:46:09.789Z,5.57
2018-08-17T15:48:44.535Z,7.23
2018-08-17T15:51:14.466Z,7.50
2018-08-17T16:01:40.221Z,6.10
2018-08-17T16:04:10.789Z,6.03
2018-08-17T17:01:45.843Z,8.80
2018-08-17T17:04:15.687Z,3.92
2018-08-17T17:06:45.574Z,4.63
2018-08-17T17:09:15.763Z,7.40
2018-08-17T17:11:45.812Z,5.90
2018-08-17T17:14:15.635Z,4.87
2018-08-17T17:16:48.217Z,4.47
2018-08-17T17:19:21.474Z,3.80
2018-08-17T17:21:52.438Z,4.77
2018-08-17T17:24:22.322Z,4.53
2018-08-17T17:26:52.309Z,7.50
2018-08-17T17:29:22.240Z,5.70
2018-08-17T17:31:52.702Z,4.93
2018-08-17T17:34:22.530Z,5.83
2018-08-17T17:36:53.109Z,6.40
2018-08-17T17:39:22.971Z,6.43
2018-08-17T17:41:53.120Z,6.23
2018-08-17T17:44:23.244Z,5.73
2018-08-17T17:46:53.070Z,6.67
2018-08-17T17:49:23.029Z,5.70
2018-08-17T17:51:52.968Z,7.87
2018-08-17T17:54:25.486Z,8.97
2018-08-17T17:57:00.270Z,8.33
2018-08-17T18:02:03.808Z,6.40
2018-08-17T18:04:33.805Z,7.30
2018-08-17T18:07:04.054Z,5.73
2018-08-17T18:09:34.330Z,8.43
2018-08-17T18:12:04.340Z,8.83
2018-08-17T18:14:34.427Z,4.23
2018-08-17T18:17:04.430Z,9.00
2018-08-17T18:19:35.590Z,9.23
2018-08-17T18:22:05.647Z,10.37
2018-08-17T18:24:35.646Z,7.47
2018-08-17T18:27:05.737Z,6.63
2018-08-17T18:29:35.729Z,8.73
2018-08-17T18:32:05.763Z,8.50
2018-08-17T18:34:35.600Z,7.03
2018-08-17T18:37:05.751Z,9.33
2018-08-17T18:39:35.651Z,5.13
2018-08-17T18:42:05.756Z,7.40
2018-08-17T18:44:35.828Z,7.53
2018-08-17T18:47:05.640Z,8.27
2018-08-17T18:49:35.527Z,5.30
2018-08-17T18:52:05.621Z,9.03
2018-08-17T18:54:35.533Z,8.13
2018-08-17T18:57:05.827Z,6.23
2018-08-17T18:59:35.774Z,4.07
2018-08-17T19:02:05.844Z,7.70
2018-08-17T19:04:35.781Z,5.87
2018-08-17T19:07:06.129Z,8.23
2018-08-17T19:09:36.047Z,9.20
2018-08-17T19:12:06.185Z,6.20
2018-08-17T19:14:41.107Z,5.27
2018-08-17T19:17:15.289Z,5.40
2018-08-17T19:19:45.548Z,8.90
2018-08-17T19:22:15.610Z,6.63
2018-08-17T19:24:45.707Z,5.47
2018-08-17T19:27:24.396Z,8.77
2018-08-17T19:29:54.880Z,9.17
2018-08-17T19:32:24.868Z,8.27
2018-08-17T19:34:54.826Z,10.57
2018-08-17T19:37:24.726Z,11.20
2018-08-17T19:39:54.505Z,6.00
2018-08-17T19:42:24.338Z,8.03
2018-08-17T19:44:54.229Z,10.03
2018-08-17T19:47:24.256Z,7.53
2018-08-17T19:49:54.140Z,8.80
2018-08-17T19:52:24.220Z,8.10
2018-08-17T19:54:54.233Z,8.20
2018-08-17T19:57:24.366Z,10.43
2018-08-17T19:59:54.503Z,5.93
2018-08-17T20:02:24.479Z,7.60
2018-08-17T20:04:54.497Z,8.97
2018-08-17T20:07:24.372Z,8.63
2018-08-17T20:09:54.248Z,5.40
2018-08-17T20:12:24.208Z,7.73
2018-08-17T20:14:54.268Z,7.43
2018-08-17T20:17:24.142Z,6.23
2018-08-17T20:19:54.151Z,5.90
2018-08-17T20:22:24.829Z,8.20
2018-08-17T20:24:54.716Z,7.27
2018-08-17T20:27:24.951Z,8.97
2018-08-17T20:29:56.484Z,10.17
2018-08-17T20:32:26.446Z,6.70
2018-08-17T20:34:56.299Z,9.80
2018-08-17T20:37:26.234Z,7.33
2018-08-17T20:39:56.039Z,9.97
2018-08-17T20:42:26.295Z,9.57
2018-08-17T20:44:56.302Z,9.07
2018-08-17T20:47:26.390Z,7.30
2018-08-17T20:49:56.561Z,7.10
2018-08-17T20:52:26.563Z,5.73
2018-08-17T20:54:56.717Z,6.60
2018-08-17T20:57:26.591Z,8.10
2018-08-17T20:59:56.427Z,5.10
2018-08-17T21:02:26.361Z,7.63
2018-08-17T21:04:56.223Z,8.77
2018-08-17T21:07:26.246Z,6.90
2018-08-17T21:09:56.186Z,5.80
2018-08-17T21:12:26.436Z,7.90
2018-08-17T21:14:56.291Z,10.13
2018-08-17T21:17:26.457Z,4.83
2018-08-17T21:19:56.434Z,8.80
2018-08-17T21:22:26.389Z,9.30
2018-08-17T21:24:56.411Z,6.83
2018-08-17T21:27:26.321Z,6.23
2018-08-17T21:29:56.248Z,8.37
2018-08-17T21:32:26.284Z,4.70
2018-08-17T21:34:56.421Z,10.50
2018-08-17T21:37:27.703Z,8.00
2018-08-17T21:39:57.793Z,8.67
2018-08-17T21:42:27.717Z,7.83
2018-08-17T21:44:57.616Z,8.17
2018-08-17T21:47:27.536Z,9.00
2018-08-17T21:50:29.212Z,7.90
2018-08-17T21:52:59.015Z,9.43
2018-08-17T21:55:28.896Z,6.17
2018-08-17T21:57:58.686Z,9.10
2018-08-17T22:00:30.939Z,8.10
2018-08-17T22:03:01.138Z,6.33
2018-08-17T22:05:34.916Z,7.00
2018-08-17T22:08:04.953Z,16.73
2018-08-17T22:10:35.009Z,7.90
2018-08-17T22:13:05.010Z,7.87
2018-08-17T22:15:35.044Z,8.37
2018-08-17T22:18:04.963Z,7.90
2018-08-17T22:20:34.767Z,7.47
2018-08-17T22:23:04.804Z,10.23
2018-08-17T22:25:34.950Z,7.67
2018-08-17T22:28:04.809Z,6.80
2018-08-17T22:30:34.830Z,9.03
2018-08-17T22:33:04.807Z,6.90
2018-08-17T22:35:34.772Z,10.00
2018-08-17T22:38:04.597Z,7.57
2018-08-17T22:40:34.789Z,11.73
2018-08-17T22:43:04.832Z,8.60
2018-08-17T22:45:34.785Z,7.90
2018-08-17T22:48:04.738Z,6.40
2018-08-17T22:50:34.760Z,11.40
2018-08-17T22:53:04.717Z,6.23
2018-08-17T22:55:34.580Z,7.57
2018-08-17T22:58:04.639Z,6.77
2018-08-17T23:00:34.749Z,9.33
2018-08-17T23:03:04.742Z,10.23
2018-08-17T23:05:37.348Z,7.50
2018-08-17T23:08:07.404Z,5.87
2018-08-17T23:10:37.321Z,5.83
2018-08-17T23:13:07.312Z,6.67
2018-08-17T23:15:37.318Z,6.10
2018-08-17T23:18:07.468Z,8.77
2018-08-17T23:20:38.168Z,8.03
2018-08-17T23:23:08.368Z,7.60
2018-08-17T23:25:38.297Z,7.00
2018-08-17T23:28:08.539Z,8.70
2018-08-17T23:30:38.557Z,10.23
2018-08-17T23:33:08.442Z,7.23
2018-08-17T23:35:38.279Z,5.63
2018-08-17T23:38:08.202Z,7.70
2018-08-17T23:40:38.145Z,7.47
2018-08-17T23:43:08.105Z,7.27
2018-08-17T23:45:38.097Z,6.00
2018-08-17T23:48:07.933Z,12.83
2018-08-17T23:50:37.871Z,6.80
2018-08-17T23:53:07.819Z,8.77
2018-08-17T23:55:37.873Z,8.83
2018-08-17T23:58:07.829Z,7.30
